createdAt,value
2019-02-10T00:02:21.577Z,7.01
2019-02-10T00:04:49.895Z,7.07
2019-02-10T00:07:18.248Z,7.19
2019-02-10T00:09:46.609Z,7.06
2019-02-10T00:12:14.927Z,7.11
2019-02-10T00:14:43.246Z,7.08
2019-02-10T00:17:12.280Z,7.05
2019-02-10T00:19:40.575Z,6.99
2019-02-10T00:22:09.034Z,6.88
2019-02-10T00:24:37.411Z,6.91
2019-02-10T00:27:05.787Z,7.02
2019-02-10T00:29:34.126Z,6.95
2019-02-10T00:32:02.482Z,6.88
2019-02-10T00:34:30.816Z,6.73
2019-02-10T00:36:59.211Z,6.60
2019-02-10T00:39:27.513Z,6.52
2019-02-10T00:41:55.886Z,6.44
2019-02-10T00:44:24.189Z,6.49
2019-02-10T00:46:52.533Z,6.38
2019-02-10T00:49:20.850Z,6.24
2019-02-10T00:51:49.210Z,6.13
2019-02-10T00:54:17.547Z,6.11
2019-02-10T00:56:45.903Z,6.09
2019-02-10T00:59:14.249Z,6.02
2019-02-10T01:01:42.577Z,6.15
2019-02-10T01:04:11.776Z,6.39
2019-02-10T01:06:41.687Z,6.34
2019-02-10T01:09:10.838Z,6.29
2019-02-10T01:11:39.898Z,6.41
2019-02-10T01:14:08.365Z,6.35
2019-02-10T01:16:36.697Z,6.48
2019-02-10T01:19:06.903Z,6.57
2019-02-10T01:21:35.401Z,6.59
2019-02-10T01:24:03.856Z,6.64
2019-02-10T01:26:32.277Z,6.60
2019-02-10T01:29:00.636Z,6.71
2019-02-10T01:31:28.971Z,6.76
2019-02-10T01:33:57.283Z,6.76
2019-02-10T01:36:25.631Z,6.81
2019-02-10T01:38:53.953Z,6.72
2019-02-10T01:41:22.342Z,6.78
2019-02-10T01:43:50.645Z,6.85
2019-02-10T01:46:19.032Z,6.93
2019-02-10T01:48:47.354Z,6.92
2019-02-10T01:51:15.681Z,6.92
2019-02-10T01:53:44.027Z,6.99
2019-02-10T01:56:12.603Z,6.95
2019-02-10T01:58:40.914Z,7.02
2019-02-10T02:01:09.448Z,6.92
2019-02-10T02:03:37.797Z,7.00
2019-02-10T02:06:06.155Z,6.97
2019-02-10T02:08:34.487Z,6.93
2019-02-10T02:11:02.822Z,6.93
2019-02-10T02:13:31.143Z,6.87
2019-02-10T02:15:59.489Z,6.89
2019-02-10T02:18:27.810Z,6.92
2019-02-10T02:20:56.149Z,6.81
2019-02-10T02:23:24.527Z,6.89
2019-02-10T02:25:52.921Z,6.85
2019-02-10T02:28:21.286Z,6.90
2019-02-10T02:30:49.689Z,6.94
2019-02-10T02:33:17.981Z,6.90
2019-02-10T02:35:46.298Z,6.98
2019-02-10T02:38:14.659Z,6.96
2019-02-10T02:40:43.034Z,7.00
2019-02-10T02:43:11.689Z,7.05
2019-02-10T02:45:40.021Z,7.09
2019-02-10T02:48:08.375Z,7.10
2019-02-10T02:50:36.804Z,7.14
2019-02-10T02:53:05.137Z,7.14
2019-02-10T02:55:33.463Z,7.19
2019-02-10T02:58:01.921Z,7.21
2019-02-10T03:00:30.298Z,7.31
2019-02-10T03:02:58.641Z,7.36
2019-02-10T03:05:26.964Z,7.37
2019-02-10T03:07:55.311Z,7.38
2019-02-10T03:10:23.707Z,7.36
2019-02-10T03:12:52.072Z,7.45
2019-02-10T03:15:20.397Z,7.31
2019-02-10T03:17:48.792Z,7.44
2019-02-10T03:20:17.151Z,7.36
2019-02-10T03:22:45.451Z,7.38
2019-02-10T03:25:14.100Z,7.37
2019-02-10T03:27:42.419Z,7.44
2019-02-10T03:30:12.294Z,7.53
2019-02-10T03:32:40.679Z,7.59
2019-02-10T03:35:09.135Z,7.69
2019-02-10T03:37:37.500Z,7.61
2019-02-10T03:40:08.244Z,7.67
2019-02-10T03:42:36.625Z,7.73
2019-02-10T03:45:07.260Z,7.50
2019-02-10T03:47:35.610Z,7.63
2019-02-10T03:50:05.833Z,7.57
2019-02-10T03:52:34.302Z,7.59
2019-02-10T03:55:02.773Z,7.55
2019-02-10T03:57:31.177Z,7.68
2019-02-10T03:59:59.539Z,7.56
2019-02-10T04:02:27.881Z,7.65
2019-02-10T04:04:56.315Z,7.57
2019-02-10T04:07:24.610Z,7.22
2019-02-10T04:09:52.990Z,7.27
2019-02-10T04:12:21.402Z,7.51
2019-02-10T04:14:49.777Z,7.17
2019-02-10T04:17:18.129Z,7.00
2019-02-10T04:19:46.471Z,7.14
2019-02-10T04:22:14.791Z,7.21
2019-02-10T04:24:43.168Z,7.17
2019-02-10T04:27:11.870Z,7.00
2019-02-10T04:29:40.198Z,7.04
2019-02-10T04:32:09.724Z,7.16
2019-02-10T04:34:38.058Z,7.09
2019-02-10T04:37:06.379Z,7.01
2019-02-10T04:39:34.728Z,7.02
2019-02-10T04:42:03.053Z,7.15
2019-02-10T04:44:31.610Z,7.09
2019-02-10T04:47:00.088Z,7.20
2019-02-10T04:49:28.400Z,7.17
2019-02-10T04:51:56.733Z,7.15
2019-02-10T04:54:25.068Z,7.13
2019-02-10T04:56:53.865Z,6.95
2019-02-10T04:59:22.196Z,7.06
2019-02-10T05:01:50.522Z,7.16
2019-02-10T05:04:18.851Z,7.26
2019-02-10T05:06:47.161Z,7.29
2019-02-10T05:09:15.486Z,7.35
2019-02-10T05:11:43.800Z,7.37
2019-02-10T05:14:12.419Z,7.40
2019-02-10T05:16:40.730Z,7.30
2019-02-10T05:19:09.094Z,7.40
2019-02-10T05:21:37.432Z,7.44
2019-02-10T05:24:05.746Z,7.41
2019-02-10T05:26:34.073Z,7.41
2019-02-10T05:29:02.390Z,7.63
2019-02-10T05:31:30.741Z,7.55
2019-02-10T05:33:59.066Z,7.61
2019-02-10T05:36:27.411Z,7.65
2019-02-10T05:38:55.721Z,7.71
2019-02-10T05:41:24.078Z,7.72
2019-02-10T05:43:52.377Z,7.76
2019-02-10T05:46:20.883Z,7.71
2019-02-10T05:48:49.186Z,7.81
2019-02-10T05:51:17.520Z,7.73
2019-02-10T05:53:45.828Z,7.73
2019-02-10T05:56:14.170Z,7.73
2019-02-10T05:58:42.496Z,7.73
2019-02-10T06:01:17.244Z,7.76
2019-02-10T06:03:45.565Z,7.76
2019-02-10T06:06:13.921Z,7.86
2019-02-10T06:08:42.245Z,7.86
2019-02-10T06:11:11.260Z,7.89
2019-02-10T06:13:39.560Z,7.96
2019-02-10T06:16:07.881Z,8.08
2019-02-10T06:18:36.221Z,8.02
2019-02-10T06:21:04.571Z,8.18
2019-02-10T06:23:32.892Z,8.19
2019-02-10T06:26:01.237Z,8.22
2019-02-10T06:28:29.543Z,8.24
2019-02-10T06:30:57.863Z,8.25
2019-02-10T06:33:26.174Z,8.24
2019-02-10T06:35:54.524Z,8.34
2019-02-10T06:38:22.998Z,8.29
2019-02-10T06:40:51.420Z,8.36
2019-02-10T06:43:19.810Z,8.37
2019-02-10T06:45:48.204Z,8.37
2019-02-10T06:48:16.538Z,8.42
2019-02-10T06:50:44.847Z,8.42
2019-02-10T06:53:13.330Z,8.48
2019-02-10T06:55:41.674Z,8.45
2019-02-10T06:58:10.001Z,8.51
2019-02-10T07:00:41.093Z,8.56
2019-02-10T07:03:16.622Z,8.63
2019-02-10T07:05:45.419Z,8.64
2019-02-10T07:08:13.973Z,8.72
2019-02-10T07:10:42.309Z,8.72
2019-02-10T07:13:11.814Z,8.72
2019-02-10T07:15:47.473Z,8.87
2019-02-10T07:18:23.227Z,8.95
2019-02-10T07:20:51.517Z,8.97
2019-02-10T07:23:26.196Z,8.91
2019-02-10T07:25:54.522Z,9.01
2019-02-10T07:28:26.217Z,9.05
2019-02-10T07:30:57.898Z,9.20
2019-02-10T07:33:30.619Z,9.22
2019-02-10T07:36:03.293Z,9.21
2019-02-10T07:38:38.650Z,9.23
2019-02-10T07:41:12.721Z,9.24
2019-02-10T07:43:46.251Z,9.30
2019-02-10T07:46:19.929Z,9.27
2019-02-10T07:48:53.048Z,9.30
2019-02-10T07:51:27.717Z,9.35
2019-02-10T07:54:01.200Z,9.37
2019-02-10T07:56:37.318Z,9.42
2019-02-10T07:59:11.051Z,9.46
2019-02-10T08:01:43.015Z,9.37
2019-02-10T08:04:16.303Z,9.34
2019-02-10T08:06:49.211Z,9.43
2019-02-10T08:09:24.031Z,9.32
2019-02-10T08:11:58.766Z,9.34
2019-02-10T08:14:33.443Z,9.25
2019-02-10T08:20:20.161Z,9.07
2019-02-10T08:22:53.795Z,9.04
2019-02-10T08:25:24.361Z,9.14
2019-02-10T08:31:08.037Z,9.05
2019-02-10T08:33:40.750Z,9.06
2019-02-10T08:36:13.845Z,9.03
2019-02-10T08:41:56.898Z,9.22
2019-02-10T08:44:30.549Z,9.15
2019-02-10T08:47:05.350Z,9.22
2019-02-10T08:52:51.698Z,9.19
2019-02-10T08:55:15.485Z,9.25
2019-02-10T08:57:43.825Z,9.25
2019-02-10T09:00:12.202Z,9.36
2019-02-10T09:02:40.564Z,9.32
2019-02-10T09:05:09.438Z,9.36
2019-02-10T09:07:37.728Z,9.38
2019-02-10T09:10:10.668Z,9.46
2019-02-10T09:12:38.999Z,9.41
2019-02-10T09:15:11.228Z,9.48
2019-02-10T09:17:39.673Z,9.49
2019-02-10T09:20:10.317Z,9.47
2019-02-10T09:22:38.694Z,9.45
2019-02-10T09:25:08.608Z,9.46
2019-02-10T09:27:36.975Z,9.56
2019-02-10T09:30:08.139Z,9.59
2019-02-10T09:32:36.516Z,9.61
2019-02-10T09:35:06.708Z,9.64
2019-02-10T09:37:35.063Z,9.63
2019-02-10T09:40:05.929Z,9.71
2019-02-10T09:42:34.240Z,9.72
2019-02-10T09:45:02.696Z,9.82
2019-02-10T09:47:31.049Z,9.78
2019-02-10T09:49:59.393Z,9.86
2019-02-10T09:52:27.702Z,9.96
2019-02-10T09:54:56.058Z,10.00
2019-02-10T09:57:24.381Z,10.10
2019-02-10T09:59:52.774Z,10.23
2019-02-10T10:02:21.086Z,10.21
2019-02-10T10:04:49.445Z,10.25
2019-02-10T10:07:17.788Z,10.20
2019-02-10T10:12:35.365Z,10.03
2019-02-10T10:15:05.003Z,9.91
2019-02-10T10:17:33.303Z,9.85
2019-02-10T10:20:01.645Z,9.83
2019-02-10T10:22:29.957Z,9.77
2019-02-10T10:24:58.334Z,9.83
2019-02-10T10:27:26.647Z,9.81
2019-02-10T10:29:54.975Z,9.85
2019-02-10T10:32:23.339Z,9.95
2019-02-10T10:34:51.673Z,10.01
2019-02-10T10:37:19.993Z,10.03
2019-02-10T10:39:48.342Z,10.12
2019-02-10T10:42:16.696Z,10.04
2019-02-10T10:44:45.006Z,9.90
2019-02-10T10:47:13.321Z,9.77
2019-02-10T10:49:41.634Z,9.63
2019-02-10T10:52:09.981Z,9.45
2019-02-10T10:54:42.815Z,9.50
2019-02-10T10:57:08.888Z,9.65
2019-02-10T10:59:37.202Z,9.66
2019-02-10T11:02:05.641Z,9.64
2019-02-10T11:04:33.927Z,9.61
2019-02-10T11:07:02.261Z,9.67
2019-02-10T11:09:35.361Z,9.51
2019-02-10T11:12:21.881Z,9.54
2019-02-10T11:14:50.225Z,9.38
2019-02-10T11:17:18.559Z,9.27
2019-02-10T11:19:46.877Z,9.15
2019-02-10T11:22:15.208Z,9.12
2019-02-10T11:24:43.511Z,9.17
2019-02-10T11:27:11.846Z,9.27
2019-02-10T11:29:40.173Z,9.30
2019-02-10T11:32:09.377Z,9.38
2019-02-10T11:34:38.442Z,9.37
2019-02-10T11:37:07.330Z,9.24
2019-02-10T11:39:43.400Z,9.38
2019-02-10T11:42:06.177Z,9.30
2019-02-10T11:44:34.504Z,9.19
2019-02-10T11:47:02.959Z,9.28
2019-02-10T11:49:31.338Z,9.26
2019-02-10T11:51:59.660Z,9.24
2019-02-10T11:54:27.991Z,9.36
2019-02-10T11:56:56.368Z,9.43
2019-02-10T11:59:24.737Z,9.44
2019-02-10T12:01:53.089Z,9.44
2019-02-10T12:04:21.431Z,9.41
2019-02-10T12:06:49.746Z,9.29
2019-02-10T12:09:19.147Z,9.23
2019-02-10T12:11:47.566Z,9.26
2019-02-10T12:14:15.905Z,9.26
2019-02-10T12:16:44.224Z,9.28
2019-02-10T12:19:12.550Z,9.25
2019-02-10T12:21:40.879Z,9.23
2019-02-10T12:24:09.321Z,9.39
2019-02-10T12:26:37.655Z,9.32
2019-02-10T12:29:06.057Z,9.24
2019-02-10T12:31:34.401Z,9.22
2019-02-10T12:34:02.858Z,9.27
2019-02-10T12:36:31.165Z,9.22
2019-02-10T12:38:59.507Z,9.24
2019-02-10T12:41:27.847Z,9.19
2019-02-10T12:43:56.189Z,9.18
2019-02-10T12:46:24.511Z,9.21
2019-02-10T12:48:52.847Z,9.34
2019-02-10T12:51:21.162Z,9.27
2019-02-10T12:53:49.469Z,9.31
2019-02-10T12:56:17.785Z,9.31
2019-02-10T12:58:46.110Z,9.39
2019-02-10T13:01:14.461Z,9.45
2019-02-10T13:03:42.820Z,9.35
2019-02-10T13:06:11.137Z,9.41
2019-02-10T13:08:39.470Z,9.38
2019-02-10T13:11:08.174Z,9.33
2019-02-10T13:13:36.502Z,9.30
2019-02-10T13:16:04.911Z,9.32
2019-02-10T13:18:33.241Z,9.21
2019-02-10T13:21:01.567Z,9.31
2019-02-10T13:23:29.918Z,9.25
2019-02-10T13:25:58.238Z,9.34
2019-02-10T13:28:27.825Z,9.24
2019-02-10T13:30:56.332Z,9.28
2019-02-10T13:33:24.860Z,9.26
2019-02-10T13:35:53.379Z,9.30
2019-02-10T13:38:21.694Z,9.30
2019-02-10T13:40:50.011Z,9.20
2019-02-10T13:43:18.337Z,9.22
2019-02-10T13:45:46.665Z,9.25
2019-02-10T13:48:14.998Z,9.24
2019-02-10T13:50:43.313Z,9.30
2019-02-10T13:53:11.644Z,9.27
2019-02-10T13:55:39.985Z,9.16
2019-02-10T13:58:08.634Z,9.18
2019-02-10T14:00:36.975Z,9.21
2019-02-10T14:03:05.367Z,9.23
2019-02-10T14:05:33.748Z,9.23
2019-02-10T14:08:02.137Z,9.28
2019-02-10T14:10:30.472Z,9.35
2019-02-10T14:12:58.777Z,9.26
2019-02-10T14:15:27.185Z,9.35
2019-02-10T14:17:55.515Z,9.41
2019-02-10T14:20:23.908Z,9.36
2019-02-10T14:22:52.231Z,9.27
2019-02-10T14:25:20.567Z,9.12
2019-02-10T14:27:48.877Z,8.96
2019-02-10T14:30:18.790Z,8.84
2019-02-10T14:32:47.140Z,8.84
2019-02-10T14:35:15.481Z,8.77
2019-02-10T14:37:43.775Z,8.73
2019-02-10T14:40:12.937Z,8.70
2019-02-10T14:42:41.939Z,8.57
2019-02-10T14:45:13.836Z,8.55
2019-02-10T14:47:42.186Z,8.46
2019-02-10T14:50:13.691Z,8.45
2019-02-10T14:52:42.013Z,8.40
2019-02-10T14:55:10.628Z,8.42
2019-02-10T14:57:38.953Z,8.47
2019-02-10T15:00:11.172Z,8.44
2019-02-10T15:02:40.368Z,8.47
2019-02-10T15:05:09.509Z,8.50
2019-02-10T15:07:37.800Z,8.42
2019-02-10T15:10:13.182Z,8.45
2019-02-10T15:12:41.506Z,8.49
2019-02-10T15:15:10.552Z,8.37
2019-02-10T15:17:38.876Z,8.38
2019-02-10T15:20:09.953Z,8.38
2019-02-10T15:22:38.345Z,8.29
2019-02-10T15:25:09.923Z,8.35
2019-02-10T15:27:38.249Z,8.38
2019-02-10T15:30:10.985Z,8.43
2019-02-10T15:32:39.267Z,8.48
2019-02-10T15:35:08.261Z,8.49
2019-02-10T15:37:36.640Z,8.45
2019-02-10T15:40:07.927Z,8.49
2019-02-10T15:42:36.288Z,8.47
2019-02-10T15:45:06.103Z,8.41
2019-02-10T15:47:34.975Z,8.50
2019-02-10T15:50:05.198Z,8.52
2019-02-10T15:52:33.606Z,8.54
2019-02-10T15:55:01.963Z,8.62
2019-02-10T15:57:30.380Z,8.53
2019-02-10T15:59:58.695Z,8.59
2019-02-10T16:02:27.405Z,8.55
2019-02-10T16:04:56.126Z,8.62
2019-02-10T16:07:24.973Z,8.50
2019-02-10T16:09:53.446Z,8.45
2019-02-10T16:12:21.894Z,8.41
2019-02-10T16:14:50.484Z,8.40
2019-02-10T16:17:18.946Z,8.24
2019-02-10T16:19:47.558Z,8.28
2019-02-10T16:22:16.135Z,8.30
2019-02-10T16:24:44.443Z,8.39
2019-02-10T16:27:13.810Z,8.35
2019-02-10T16:29:42.129Z,8.33
2019-02-10T16:32:10.501Z,8.30
2019-02-10T16:34:38.823Z,8.22
2019-02-10T16:37:07.535Z,8.23
2019-02-10T16:39:35.834Z,8.13
2019-02-10T16:42:04.169Z,8.02
2019-02-10T16:44:32.490Z,7.99
2019-02-10T16:47:00.835Z,8.06
2019-02-10T16:49:29.174Z,7.93
2019-02-10T16:51:57.606Z,7.90
2019-02-10T16:54:25.926Z,7.79
2019-02-10T16:56:54.410Z,7.78
2019-02-10T17:01:56.419Z,7.80
2019-02-10T17:04:25.078Z,7.81
2019-02-10T17:06:53.589Z,7.75
2019-02-10T17:09:22.190Z,7.77
2019-02-10T17:11:50.550Z,7.85
2019-02-10T17:14:18.885Z,7.84
2019-02-10T17:16:47.255Z,7.77
2019-02-10T17:19:15.563Z,7.63
2019-02-10T17:21:44.018Z,7.58
2019-02-10T17:24:12.917Z,7.57
2019-02-10T17:26:41.301Z,7.60
2019-02-10T17:29:10.226Z,7.53
2019-02-10T17:31:38.538Z,7.51
2019-02-10T17:34:06.862Z,7.54
2019-02-10T17:36:35.181Z,7.52
2019-02-10T17:39:03.798Z,7.52
2019-02-10T17:41:32.107Z,7.62
2019-02-10T17:44:00.440Z,7.52
2019-02-10T17:46:29.329Z,7.52
2019-02-10T17:48:57.652Z,7.48
2019-02-10T17:51:25.961Z,7.58
2019-02-10T17:53:54.306Z,7.46
2019-02-10T17:56:22.689Z,7.34
2019-02-10T17:58:51.029Z,7.22
2019-02-10T18:01:19.707Z,7.33
2019-02-10T18:03:48.042Z,7.32
2019-02-10T18:06:16.439Z,7.28
2019-02-10T18:08:44.799Z,7.17
2019-02-10T18:11:13.242Z,7.13
2019-02-10T18:13:41.555Z,7.06
2019-02-10T18:16:12.527Z,6.99
2019-02-10T18:18:43.147Z,6.89
2019-02-10T18:21:16.119Z,6.88
2019-02-10T18:23:48.249Z,6.85
2019-02-10T18:26:20.320Z,6.75
2019-02-10T18:28:54.970Z,6.79
2019-02-10T18:31:35.862Z,6.76
2019-02-10T18:34:04.658Z,6.79
2019-02-10T18:36:35.811Z,6.70
2019-02-10T18:39:06.569Z,6.66
2019-02-10T18:41:39.363Z,6.65
2019-02-10T18:44:10.290Z,6.67
2019-02-10T18:46:42.490Z,6.68
2019-02-10T18:49:13.707Z,6.68
2019-02-10T18:51:46.292Z,6.76
2019-02-10T18:54:16.986Z,6.85
2019-02-10T18:56:48.950Z,6.90
2019-02-10T18:59:19.692Z,6.94
2019-02-10T19:01:49.983Z,6.87
2019-02-10T19:04:20.978Z,6.86
2019-02-10T19:06:49.319Z,6.90
2019-02-10T19:09:20.397Z,6.93
2019-02-10T19:11:51.375Z,6.96
2019-02-10T19:14:22.411Z,6.96
2019-02-10T19:16:53.412Z,7.01
2019-02-10T19:19:23.733Z,7.08
2019-02-10T19:21:54.024Z,7.07
2019-02-10T19:24:26.676Z,7.21
2019-02-10T19:26:57.637Z,7.23
2019-02-10T19:29:28.800Z,7.20
2019-02-10T19:31:59.996Z,7.14
2019-02-10T19:34:30.990Z,7.07
2019-02-10T19:37:01.200Z,7.12
2019-02-10T19:39:33.068Z,7.12
2019-02-10T19:42:04.532Z,7.05
2019-02-10T19:44:35.830Z,7.06
2019-02-10T19:47:06.502Z,6.99
2019-02-10T19:49:37.600Z,7.02
2019-02-10T19:52:08.718Z,7.13
2019-02-10T19:54:39.441Z,7.09
2019-02-10T19:57:10.968Z,7.12
2019-02-10T19:59:41.063Z,7.11
2019-02-10T20:02:10.017Z,7.08
2019-02-10T20:04:41.762Z,7.06
2019-02-10T20:07:12.900Z,7.01
2019-02-10T20:09:44.009Z,7.09
2019-02-10T20:12:15.340Z,6.97
2019-02-10T20:14:45.831Z,7.01
2019-02-10T20:17:16.809Z,6.79
2019-02-10T20:19:47.940Z,6.79
2019-02-10T20:22:19.882Z,6.73
2019-02-10T20:24:50.829Z,6.67
2019-02-10T20:27:21.944Z,6.60
2019-02-10T20:29:52.900Z,6.63
2019-02-10T20:32:23.544Z,6.50
2019-02-10T20:34:54.453Z,6.45
2019-02-10T20:37:26.251Z,6.49
2019-02-10T20:39:58.327Z,6.44
2019-02-10T20:42:28.007Z,6.44
2019-02-10T20:44:59.157Z,6.32
2019-02-10T20:47:28.984Z,6.31
2019-02-10T20:50:00.310Z,6.22
2019-02-10T20:52:31.070Z,6.24
2019-02-10T20:55:00.463Z,6.31
2019-02-10T20:57:31.426Z,6.26
2019-02-10T21:00:02.522Z,6.28
2019-02-10T21:02:32.813Z,6.27
2019-02-10T21:05:03.835Z,6.27
2019-02-10T21:07:34.953Z,6.26
2019-02-10T21:10:05.155Z,6.25
2019-02-10T21:12:36.177Z,6.25
2019-02-10T21:15:09.752Z,6.18
2019-02-10T21:17:38.531Z,6.22
2019-02-10T21:20:11.518Z,6.23
2019-02-10T21:22:40.544Z,6.26
2019-02-10T21:25:12.352Z,6.27
2019-02-10T21:27:42.042Z,6.34
2019-02-10T21:30:14.679Z,6.44
2019-02-10T21:32:45.857Z,6.42
2019-02-10T21:35:16.815Z,6.39
2019-02-10T21:37:47.179Z,6.39
2019-02-10T21:40:17.076Z,6.47
2019-02-10T21:42:48.461Z,6.50
2019-02-10T21:45:19.248Z,6.49
2019-02-10T21:47:49.930Z,6.49
2019-02-10T21:50:18.234Z,6.42
2019-02-10T21:52:46.602Z,6.46
2019-02-10T21:55:16.637Z,6.40
2019-02-10T21:57:45.074Z,6.33
2019-02-10T22:00:14.739Z,6.31
2019-02-10T22:02:43.066Z,6.36
2019-02-10T22:05:12.304Z,6.33
2019-02-10T22:07:40.632Z,6.31
2019-02-10T22:10:11.488Z,6.33
2019-02-10T22:12:39.818Z,6.33
2019-02-10T22:15:10.130Z,6.35
2019-02-10T22:17:38.453Z,6.38
2019-02-10T22:20:11.453Z,6.40
2019-02-10T22:22:40.383Z,6.36
2019-02-10T22:25:11.220Z,6.41
2019-02-10T22:27:39.572Z,6.35
2019-02-10T22:30:13.238Z,6.30
2019-02-10T22:32:41.627Z,6.38
2019-02-10T22:35:10.304Z,6.32
2019-02-10T22:37:38.605Z,6.37
2019-02-10T22:40:10.456Z,6.25
2019-02-10T22:42:45.360Z,6.27
2019-02-10T22:45:11.578Z,6.35
2019-02-10T22:47:40.033Z,6.41
2019-02-10T22:50:12.797Z,6.38
2019-02-10T22:52:41.240Z,6.38
2019-02-10T22:55:09.804Z,6.39
2019-02-10T22:57:38.262Z,6.35
2019-02-10T23:00:15.225Z,6.35
2019-02-10T23:02:43.591Z,6.44
2019-02-10T23:05:12.594Z,6.41
2019-02-10T23:07:40.881Z,6.44
2019-02-10T23:10:09.594Z,6.40
2019-02-10T23:12:37.901Z,6.30
2019-02-10T23:15:06.350Z,6.28
2019-02-10T23:17:34.654Z,6.32
2019-02-10T23:20:03.167Z,6.33
2019-02-10T23:22:31.535Z,6.32
2019-02-10T23:24:59.881Z,6.28
2019-02-10T23:27:28.208Z,6.24
2019-02-10T23:29:56.567Z,6.19
2019-02-10T23:32:24.873Z,6.30
2019-02-10T23:34:53.288Z,6.30
2019-02-10T23:37:21.570Z,6.23
2019-02-10T23:39:49.906Z,6.25
2019-02-10T23:42:18.237Z,6.17
2019-02-10T23:44:46.569Z,6.15
2019-02-10T23:47:15.323Z,6.06
2019-02-10T23:49:43.662Z,6.03
2019-02-10T23:52:12.173Z,6.05
2019-02-10T23:54:41.952Z,6.11
2019-02-10T23:57:10.771Z,6.16
2019-02-10T23:59:41.922Z,6.00
